Time;durP1;ratioP1;P1;durP2;ratioP2;P2;SDS_P1;SDS_P2;PMS_P1;PMS_P2;Temp;Humidity;BMP_temperature;BMP_pressure;BME280_temperature;BME280_humidity;BME280_pressure;Samples;Min_cycle;Max_cycle;Signal;HPM_P1;HPM_P2
2021/07/20 00:02:13;;;;;;;15.17;11.90;;;20.00;44.30;;;;;;5076275;28;20180;-78
2021/07/20 00:04:38;;;;;;;14.97;11.63;;;19.90;45.10;;;;;;5076990;28;20216;-78
2021/07/20 00:07:04;;;;;;;17.40;11.93;;;19.80;47.30;;;;;;5076450;28;20165;-78
2021/07/20 00:09:30;;;;;;;14.80;11.30;;;19.90;45.90;;;;;;5076435;28;20245;-78
2021/07/20 00:11:56;;;;;;;16.70;12.27;;;19.90;45.90;;;;;;5076511;28;20255;-80
2021/07/20 00:14:21;;;;;;;16.10;11.67;;;19.90;44.40;;;;;;5076227;28;20203;-77
2021/07/20 00:16:47;;;;;;;15.43;12.50;;;19.90;48.70;;;;;;5075891;28;20164;-78
2021/07/20 00:19:13;;;;;;;17.17;12.20;;;19.90;46.40;;;;;;5074592;28;20640;-78
2021/07/20 00:21:39;;;;;;;17.40;11.83;;;19.80;44.80;;;;;;5074915;28;20267;-78
2021/07/20 00:24:05;;;;;;;15.30;12.27;;;19.80;46.10;;;;;;5075898;28;20208;-79
2021/07/20 00:26:31;;;;;;;16.77;12.63;;;19.70;49.10;;;;;;5076080;28;20171;-78
2021/07/20 00:28:56;;;;;;;17.97;13.03;;;19.60;49.30;;;;;;5076267;28;20582;-78
2021/07/20 00:31:22;;;;;;;14.90;11.80;;;19.60;50.90;;;;;;5075997;28;20192;-78
2021/07/20 00:33:47;;;;;;;17.17;12.27;;;19.60;50.30;;;;;;5076326;28;20252;-77
2021/07/20 00:36:13;;;;;;;19.53;13.03;;;19.70;49.90;;;;;;5076077;28;20187;-77
2021/07/20 00:38:39;;;;;;;16.00;12.67;;;19.70;48.80;;;;;;5076255;28;20225;-77
2021/07/20 00:41:05;;;;;;;15.73;12.10;;;19.70;45.70;;;;;;5079538;28;20170;-77
2021/07/20 00:43:31;;;;;;;16.17;12.10;;;19.60;49.30;;;;;;5082927;28;20211;-77
2021/07/20 00:45:57;;;;;;;15.30;12.27;;;19.60;48.30;;;;;;5086830;28;20173;-77
2021/07/20 00:48:22;;;;;;;16.10;13.00;;;19.60;48.50;;;;;;5075796;28;20199;-77
2021/07/20 00:50:48;;;;;;;21.27;12.90;;;19.60;48.20;;;;;;5075707;28;20671;-77
2021/07/20 00:53:15;;;;;;;18.40;13.50;;;19.50;47.20;;;;;;5075858;28;20231;-77
2021/07/20 00:55:42;;;;;;;17.10;13.70;;;19.60;47.00;;;;;;5076020;28;20171;-77
2021/07/20 00:58:09;;;;;;;17.07;13.33;;;19.50;48.20;;;;;;5076322;28;20167;-78
2021/07/20 01:00:36;;;;;;;16.83;12.77;;;19.50;48.80;;;;;;5075813;28;20222;-77
2021/07/20 01:03:02;;;;;;;17.37;13.47;;;19.50;49.60;;;;;;5074903;28;20667;-77
2021/07/20 01:05:29;;;;;;;15.50;13.43;;;19.50;50.30;;;;;;5075562;28;20203;-77
2021/07/20 01:07:55;;;;;;;19.07;13.10;;;19.50;49.20;;;;;;5075779;28;20175;-77
2021/07/20 01:10:24;;;;;;;18.47;13.67;;;19.40;47.40;;;;;;5075711;28;20536;-77
2021/07/20 01:12:50;;;;;;;16.17;12.90;;;19.40;50.00;;;;;;5075585;28;20297;-78
2021/07/20 01:15:19;;;;;;;19.43;13.47;;;19.20;54.00;;;;;;5075863;28;20643;-78
2021/07/20 01:17:46;;;;;;;18.10;12.97;;;19.10;56.80;;;;;;5076144;28;20640;-78
2021/07/20 01:20:19;;;;;;;19.60;13.53;;;19.10;57.70;;;;;;5075669;28;20183;-77
2021/07/20 01:23:05;;;;;;;17.13;13.50;;;19.10;58.30;;;;;;5075702;28;20305;-77
2021/07/20 01:25:30;;;;;;;17.53;14.07;;;19.10;56.60;;;;;;5073933;28;20231;-77
2021/07/20 01:28:03;;;;;;;16.33;13.50;;;19.10;57.70;;;;;;5075363;28;20172;-77
2021/07/20 01:30:31;;;;;;;17.03;13.63;;;19.20;56.70;;;;;;5074878;28;20532;-77
2021/07/20 01:32:59;;;;;;;16.80;13.20;;;19.20;55.80;;;;;;5075309;28;20495;-76
2021/07/20 01:35:26;;;;;;;17.37;13.87;;;19.00;60.00;;;;;;5074703;28;20661;-77
2021/07/20 01:37:55;;;;;;;17.17;13.47;;;19.10;59.60;;;;;;5076252;28;20167;-76
2021/07/20 01:40:22;;;;;;;18.00;13.67;;;19.10;57.30;;;;;;5075824;28;20264;-75
2021/07/20 01:42:49;;;;;;;16.40;14.10;;;19.10;59.40;;;;;;5077212;28;20510;-76
2021/07/20 01:45:15;;;;;;;16.90;13.73;;;19.10;59.00;;;;;;5078754;28;20227;-78
2021/07/20 01:47:46;;;;;;;17.50;13.73;;;19.10;59.40;;;;;;5074736;28;20511;-77
2021/07/20 01:50:14;;;;;;;18.40;13.63;;;19.00;59.00;;;;;;5073341;28;20184;-76
2021/07/20 01:52:41;;;;;;;16.10;13.37;;;19.00;57.40;;;;;;5074547;28;20199;-77
2021/07/20 01:55:07;;;;;;;17.27;13.50;;;18.90;59.90;;;;;;5074744;28;20243;-77
2021/07/20 01:57:33;;;;;;;15.73;12.97;;;18.80;59.70;;;;;;5074411;28;20175;-77
2021/07/20 01:59:59;;;;;;;17.40;13.63;;;18.70;61.30;;;;;;5074415;28;20176;-76
2021/07/20 02:02:34;;;;;;;15.93;12.70;;;18.60;59.80;;;;;;5074897;28;20192;-77
2021/07/20 02:10:35;;;;;;;16.17;13.43;;;18.50;59.10;;;;;;5073954;28;20172;-78
2021/07/20 02:13:04;;;;;;;15.87;11.93;;;18.50;60.00;;;;;;5073851;28;20172;-76
2021/07/20 02:15:31;;;;;;;15.53;11.83;;;18.50;57.10;;;;;;5072524;28;20199;-77
2021/07/20 02:17:58;;;;;;;16.30;12.23;;;18.40;56.00;;;;;;5073891;28;20160;-77
2021/07/20 02:20:26;;;;;;;15.30;11.63;;;18.40;56.00;;;;;;5073990;28;20650;-77
2021/07/20 02:22:57;;;;;;;16.23;11.60;;;18.40;53.60;;;;;;5073325;28;20604;-77
2021/07/20 02:25:25;;;;;;;16.60;11.90;;;18.40;47.90;;;;;;5073767;28;20204;-77
2021/07/20 02:27:53;;;;;;;14.47;11.20;;;18.30;46.90;;;;;;5073646;28;20176;-77
2021/07/20 02:30:21;;;;;;;14.20;10.73;;;18.40;46.60;;;;;;5073887;28;20249;-77
2021/07/20 02:32:48;;;;;;;13.80;10.67;;;18.30;45.70;;;;;;5073774;28;20167;-76
2021/07/20 02:35:20;;;;;;;15.43;11.70;;;18.30;45.60;;;;;;5073739;28;20522;-78
2021/07/20 02:37:46;;;;;;;18.40;11.80;;;18.30;47.70;;;;;;5073557;28;20160;-78
2021/07/20 02:40:14;;;;;;;13.93;11.10;;;18.20;45.90;;;;;;5073796;28;20222;-78
2021/07/20 02:42:40;;;;;;;14.27;11.57;;;18.20;47.80;;;;;;5072461;28;20554;-78
2021/07/20 02:45:10;;;;;;;15.37;10.73;;;18.20;48.70;;;;;;5074704;28;20208;-77
2021/07/20 02:47:37;;;;;;;15.13;11.77;;;18.30;48.90;;;;;;5073618;28;20175;-78
2021/07/20 02:50:09;;;;;;;16.67;12.83;;;18.30;47.50;;;;;;5073220;28;20175;-78
2021/07/20 02:52:36;;;;;;;15.63;11.07;;;18.20;51.80;;;;;;5073217;28;20165;-78
2021/07/20 02:55:02;;;;;;;17.07;10.97;;;18.10;49.90;;;;;;5073547;28;20172;-78
2021/07/20 02:57:29;;;;;;;16.40;12.27;;;18.10;50.20;;;;;;5073192;28;20195;-79
2021/07/20 02:59:56;;;;;;;14.97;11.83;;;18.00;52.00;;;;;;5073523;28;20207;-78
2021/07/20 03:02:23;;;;;;;14.43;12.00;;;18.10;54.80;;;;;;5073833;28;20175;-78
2021/07/20 03:04:48;;;;;;;18.97;11.83;;;18.10;52.90;;;;;;5077974;28;20660;-77
2021/07/20 03:07:18;;;;;;;17.00;12.10;;;17.90;51.80;;;;;;5077317;28;20164;-77
2021/07/20 03:09:49;;;;;;;15.60;11.73;;;18.00;52.30;;;;;;5077620;28;20193;-77
2021/07/20 03:12:16;;;;;;;16.87;11.73;;;18.00;54.10;;;;;;5080001;28;20211;-78
2021/07/20 03:14:42;;;;;;;12.50;11.17;;;18.00;51.90;;;;;;5077442;28;20191;-77
2021/07/20 03:17:11;;;;;;;15.33;11.90;;;17.90;51.80;;;;;;5075387;28;20171;-78
2021/07/20 03:19:38;;;;;;;14.70;11.37;;;17.90;53.80;;;;;;5078719;28;20254;-77
2021/07/20 03:22:12;;;;;;;17.27;12.23;;;17.90;54.80;;;;;;5074350;28;20220;-77
2021/07/20 03:24:39;;;;;;;15.70;11.53;;;17.90;52.20;;;;;;5072444;28;20222;-77
2021/07/20 03:27:06;;;;;;;16.20;11.90;;;17.90;52.60;;;;;;5072791;28;20944;-77
2021/07/20 03:29:33;;;;;;;16.33;11.90;;;17.80;52.00;;;;;;5072994;28;20180;-79
2021/07/20 03:32:00;;;;;;;16.17;11.60;;;17.80;55.00;;;;;;5073064;28;20636;-80
2021/07/20 03:34:27;;;;;;;16.90;12.30;;;17.70;54.30;;;;;;5074183;28;20218;-77
2021/07/20 03:36:54;;;;;;;14.77;11.13;;;17.80;55.90;;;;;;5077763;28;20179;-77
2021/07/20 03:39:20;;;;;;;15.07;11.53;;;17.70;51.80;;;;;;5077535;28;20512;-78
2021/07/20 03:41:47;;;;;;;15.37;11.20;;;17.70;50.60;;;;;;5077289;28;20254;-77
2021/07/20 03:44:13;;;;;;;16.93;11.67;;;17.70;52.40;;;;;;5077244;28;20287;-77
2021/07/20 03:46:41;;;;;;;16.20;11.63;;;17.60;51.70;;;;;;5076955;28;20179;-77
2021/07/20 03:49:07;;;;;;;15.00;11.47;;;17.70;49.80;;;;;;5077082;28;20195;-78
2021/07/20 03:51:34;;;;;;;15.27;11.07;;;17.60;51.00;;;;;;5077115;28;20654;-77
2021/07/20 03:54:02;;;;;;;14.97;10.63;;;17.60;50.50;;;;;;5076275;28;20549;-75
2021/07/20 03:56:30;;;;;;;15.93;11.83;;;17.60;50.50;;;;;;5076896;28;20168;-77
2021/07/20 03:58:58;;;;;;;16.37;11.77;;;17.60;46.70;;;;;;5075281;28;20238;-77
2021/07/20 04:01:28;;;;;;;15.37;11.57;;;17.50;47.20;;;;;;5076562;28;20183;-77
2021/07/20 04:03:55;;;;;;;15.53;11.60;;;17.50;46.80;;;;;;5076275;28;20192;-77
2021/07/20 04:06:23;;;;;;;16.63;12.37;;;17.60;48.30;;;;;;5076353;28;20647;-78
2021/07/20 04:08:51;;;;;;;14.80;10.83;;;17.50;49.00;;;;;;5075748;28;20250;-77
2021/07/20 04:11:17;;;;;;;16.30;11.93;;;17.50;45.80;;;;;;5076339;28;20218;-78
2021/07/20 04:13:43;;;;;;;17.23;11.87;;;17.60;45.90;;;;;;5074875;28;20612;-78
2021/07/20 04:16:09;;;;;;;15.47;11.63;;;17.70;45.60;;;;;;5076188;28;20256;-78
2021/07/20 04:18:36;;;;;;;17.93;11.57;;;17.60;43.50;;;;;;5076081;28;20539;-77
2021/07/20 04:21:05;;;;;;;16.43;12.13;;;17.50;44.70;;;;;;5076383;28;20164;-78
2021/07/20 04:23:31;;;;;;;15.43;11.87;;;17.50;49.00;;;;;;5076163;28;20721;-77
2021/07/20 04:25:58;;;;;;;17.77;12.80;;;17.60;48.40;;;;;;5075997;28;20179;-78
2021/07/20 04:28:25;;;;;;;16.17;11.70;;;17.60;47.90;;;;;;5075957;28;20177;-78
2021/07/20 04:30:51;;;;;;;17.33;12.47;;;17.50;48.30;;;;;;5074303;28;20183;-78
2021/07/20 04:33:24;;;;;;;15.60;12.40;;;17.50;50.00;;;;;;5075850;28;20251;-77
2021/07/20 04:35:54;;;;;;;16.90;12.50;;;17.50;49.20;;;;;;5074741;28;20624;-76
2021/07/20 04:38:23;;;;;;;16.33;11.97;;;17.50;52.10;;;;;;5075622;28;20214;-78
2021/07/20 04:40:49;;;;;;;16.27;12.33;;;17.40;53.50;;;;;;5074680;28;20273;-78
2021/07/20 04:43:15;;;;;;;16.90;11.57;;;17.60;53.10;;;;;;5075912;28;20291;-78
2021/07/20 04:45:44;;;;;;;16.47;12.50;;;17.60;48.40;;;;;;5075340;28;20285;-77
2021/07/20 04:48:12;;;;;;;15.10;11.77;;;17.60;49.80;;;;;;5075821;28;20170;-77
2021/07/20 04:50:39;;;;;;;18.30;11.60;;;17.60;47.90;;;;;;5075720;28;20182;-76
2021/07/20 04:53:05;;;;;;;19.53;13.03;;;17.70;48.30;;;;;;5075102;28;20169;-77
2021/07/20 04:55:31;;;;;;;15.93;13.23;;;17.70;43.10;;;;;;5075399;28;20175;-77
2021/07/20 04:57:58;;;;;;;15.40;11.93;;;17.80;40.90;;;;;;5075608;28;20640;-77
2021/07/20 05:00:23;;;;;;;15.47;12.17;;;17.90;36.00;;;;;;5076847;28;20542;-78
2021/07/20 05:02:50;;;;;;;16.50;11.83;;;17.70;40.90;;;;;;5081835;28;20679;-76
2021/07/20 05:05:22;;;;;;;16.97;13.23;;;17.70;41.70;;;;;;5091044;28;20238;-76
2021/07/20 05:07:49;;;;;;;17.83;12.20;;;17.70;42.00;;;;;;5073485;28;20544;-77
2021/07/20 05:10:16;;;;;;;18.37;12.03;;;17.60;47.90;;;;;;5075389;28;20172;-77
2021/07/20 05:12:43;;;;;;;17.43;12.13;;;17.60;44.70;;;;;;5075555;28;20646;-79
2021/07/20 05:15:13;;;;;;;17.47;12.43;;;17.60;43.90;;;;;;5074881;28;20188;-77
2021/07/20 05:17:40;;;;;;;16.57;12.77;;;17.60;43.00;;;;;;5075293;28;20164;-77
2021/07/20 05:20:07;;;;;;;17.33;12.17;;;17.60;43.50;;;;;;5075041;28;20168;-78
2021/07/20 05:22:35;;;;;;;18.13;12.37;;;17.70;43.80;;;;;;5074626;28;20169;-78
2021/07/20 05:25:02;;;;;;;16.00;12.30;;;17.80;44.60;;;;;;5075139;28;20239;-77
2021/07/20 05:27:33;;;;;;;19.73;13.77;;;17.90;41.10;;;;;;5074861;28;20286;-76
2021/07/20 05:30:00;;;;;;;17.60;13.00;;;18.00;37.20;;;;;;5073765;28;20172;-77
2021/07/20 05:32:26;;;;;;;21.53;13.13;;;18.10;32.60;;;;;;5070399;28;20172;-77
2021/07/20 05:34:53;;;;;;;18.40;12.60;;;18.00;30.90;;;;;;5067497;28;20203;-76
2021/07/20 05:37:20;;;;;;;16.57;12.73;;;18.00;29.30;;;;;;5063670;28;20633;-78
2021/07/20 05:39:49;;;;;;;17.97;13.43;;;17.90;31.00;;;;;;5054686;28;20180;-78
2021/07/20 05:42:18;;;;;;;17.80;13.87;;;17.90;32.70;;;;;;5053870;28;20177;-79
2021/07/20 05:44:45;;;;;;;16.40;12.97;;;18.00;29.00;;;;;;5062539;28;20204;-77
2021/07/20 05:47:13;;;;;;;19.07;13.73;;;18.10;24.80;;;;;;5071838;28;20652;-78
2021/07/20 05:49:39;;;;;;;18.23;12.63;;;18.10;25.70;;;;;;5072807;28;20211;-78
2021/07/20 05:52:05;;;;;;;17.07;13.50;;;18.20;22.10;;;;;;5073738;28;20212;-77
2021/07/20 05:54:33;;;;;;;17.10;13.30;;;18.30;18.50;;;;;;5073699;28;20291;-77
2021/07/20 05:57:00;;;;;;;16.40;13.10;;;18.50;17.80;;;;;;5072256;28;20184;-80
2021/07/20 05:59:27;;;;;;;18.37;13.77;;;18.40;14.30;;;;;;5073119;28;20174;-77
2021/07/20 06:01:54;;;;;;;18.60;12.80;;;18.60;12.20;;;;;;5073582;28;20243;-79
2021/07/20 06:04:21;;;;;;;16.87;12.60;;;18.60;10.10;;;;;;5073086;28;20208;-78
2021/07/20 06:06:49;;;;;;;15.47;12.40;;;18.40;5.50;;;;;;5072912;28;20255;-78
2021/07/20 06:09:17;;;;;;;18.57;14.10;;;18.40;10.90;;;;;;5073519;28;20177;-78
2021/07/20 06:11:46;;;;;;;17.27;12.97;;;18.50;8.10;;;;;;5073334;28;20173;-79
2021/07/20 06:14:12;;;;;;;16.43;12.90;;;18.60;3.70;;;;;;5055386;28;20181;-79
2021/07/20 06:16:40;;;;;;;17.17;12.47;;;18.60;1.70;;;;;;5053469;28;20176;-81
2021/07/20 06:19:06;;;;;;;18.10;12.93;;;18.60;3.30;;;;;;5053437;28;20168;-80
2021/07/20 06:21:35;;;;;;;17.03;11.93;;;18.60;1.00;;;;;;5076917;28;20175;-78
2021/07/20 06:24:02;;;;;;;18.00;13.23;;;18.50;1.70;;;;;;5075121;28;20207;-78
2021/07/20 06:26:28;;;;;;;19.57;13.07;;;18.50;3.60;;;;;;5092177;28;20225;-79
2021/07/20 06:29:00;;;;;;;17.03;13.00;;;18.50;4.40;;;;;;5087086;28;20175;-79
2021/07/20 06:31:26;;;;;;;19.17;13.70;;;18.50;1.70;;;;;;5072806;28;20164;-79
2021/07/20 06:33:54;;;;;;;17.10;12.97;;;18.50;13.10;;;;;;5072963;28;20168;-78
2021/07/20 06:36:22;;;;;;;15.13;12.17;;;18.60;10.60;;;;;;5073147;28;20160;-79
2021/07/20 06:38:48;;;;;;;21.63;13.67;;;18.60;3.50;;;;;;5090978;28;20178;-84
2021/07/20 06:41:17;;;;;;;19.90;13.43;;;18.80;4.50;;;;;;5090792;28;20255;-76
2021/07/20 06:43:44;;;;;;;18.23;12.43;;;18.90;1.00;;;;;;5064814;28;20738;-79
2021/07/20 06:46:12;;;;;;;19.20;13.83;;;19.00;1.00;;;;;;5051555;28;20220;-80
2021/07/20 06:48:42;;;;;;;20.20;12.93;;;19.10;1.00;;;;;;5066289;28;20182;-78
2021/07/20 06:51:08;;;;;;;18.70;13.47;;;19.10;1.00;;;;;;5064772;28;20196;-78
2021/07/20 06:53:34;;;;;;;17.83;12.90;;;19.10;1.00;;;;;;5053769;28;20181;-79
2021/07/20 06:56:03;;;;;;;20.70;13.87;;;19.10;1.00;;;;;;5053232;28;20227;-79
2021/07/20 06:58:31;;;;;;;22.03;12.83;;;19.00;1.00;;;;;;5055138;28;20208;-79
2021/07/20 07:00:59;;;;;;;17.83;13.70;;;19.00;1.00;;;;;;5052102;28;20593;-79
2021/07/20 07:03:38;;;;;;;18.87;13.63;;;19.10;1.00;;;;;;5053042;28;20181;-79
2021/07/20 07:06:05;;;;;;;17.87;12.60;;;19.10;1.00;;;;;;5052908;28;20208;-79
2021/07/20 07:08:32;;;;;;;21.93;14.17;;;19.20;1.00;;;;;;5052982;28;20194;-78
2021/07/20 07:10:59;;;;;;;18.30;13.43;;;19.20;1.00;;;;;;5052634;28;20172;-79
2021/07/20 07:13:27;;;;;;;33.37;14.20;;;19.10;1.00;;;;;;5052738;28;20264;-79
2021/07/20 07:15:54;;;;;;;17.50;12.77;;;19.10;1.00;;;;;;5051629;28;20165;-79
2021/07/20 07:18:21;;;;;;;19.23;13.63;;;19.20;1.00;;;;;;5057027;28;20542;-80
2021/07/20 07:20:50;;;;;;;19.33;13.50;;;19.30;1.00;;;;;;5071436;28;20208;-80
2021/07/20 07:23:18;;;;;;;17.43;12.83;;;19.30;1.00;;;;;;5072388;28;20188;-78
2021/07/20 07:25:52;;;;;;;15.90;12.30;;;19.50;1.00;;;;;;5072638;28;20276;-80
2021/07/20 07:28:20;;;;;;;17.87;12.67;;;19.70;1.00;;;;;;5072742;28;20233;-79
2021/07/20 07:30:50;;;;;;;17.97;11.87;;;19.70;1.00;;;;;;5072965;28;20161;-79
2021/07/20 07:33:17;;;;;;;18.70;13.37;;;19.80;1.00;;;;;;5072866;28;20629;-79
2021/07/20 07:35:43;;;;;;;17.43;12.70;;;19.80;1.00;;;;;;5074003;28;20169;-80
2021/07/20 07:38:10;;;;;;;16.73;13.30;;;19.90;1.00;;;;;;5073293;28;20177;-79
2021/07/20 07:40:36;;;;;;;20.63;13.17;;;20.00;1.00;;;;;;5076505;28;20243;-80
2021/07/20 07:43:03;;;;;;;18.17;13.53;;;19.90;1.00;;;;;;5064496;28;20259;-80
2021/07/20 07:45:30;;;;;;;19.90;13.17;;;19.90;1.00;;;;;;5053666;28;20213;-79
2021/07/20 07:47:56;;;;;;;18.67;13.00;;;19.80;1.00;;;;;;5051917;28;20527;-80
2021/07/20 07:50:23;;;;;;;18.13;12.77;;;19.60;1.00;;;;;;5051754;28;20556;-78
2021/07/20 07:52:51;;;;;;;18.63;13.70;;;19.70;1.00;;;;;;5050805;28;20649;-79
2021/07/20 07:55:21;;;;;;;18.40;13.17;;;19.80;1.00;;;;;;5052406;28;20201;-80
2021/07/20 07:57:48;;;;;;;18.90;13.17;;;19.90;1.00;;;;;;5052384;28;20189;-79
2021/07/20 08:00:14;;;;;;;17.23;12.57;;;19.90;1.00;;;;;;5054342;28;20717;-80
2021/07/20 08:02:46;;;;;;;16.90;11.87;;;20.10;1.00;;;;;;5059950;28;20215;-79
2021/07/20 08:05:13;;;;;;;15.17;12.13;;;20.10;1.00;;;;;;5056061;28;20244;-79
2021/07/20 08:07:41;;;;;;;17.10;12.97;;;20.20;1.00;;;;;;5058544;28;20182;-81
2021/07/20 08:10:09;;;;;;;16.10;11.83;;;20.10;1.00;;;;;;5052991;28;20173;-79
2021/07/20 08:12:39;;;;;;;14.50;12.10;;;20.30;1.00;;;;;;5054313;28;20170;-79
2021/07/20 08:15:06;;;;;;;15.90;12.50;;;20.40;1.00;;;;;;5050788;28;20265;-81
2021/07/20 08:17:33;;;;;;;17.93;12.03;;;20.50;1.00;;;;;;5052189;28;20165;-80
2021/07/20 08:20:01;;;;;;;14.87;11.57;;;20.60;1.00;;;;;;5052187;28;20666;-79
2021/07/20 08:22:30;;;;;;;16.00;12.70;;;20.50;1.00;;;;;;5053452;28;20553;-79
2021/07/20 08:25:10;;;;;;;20.93;12.33;;;20.60;1.00;;;;;;5054598;28;20215;-80
2021/07/20 08:27:43;;;;;;;13.93;11.03;;;20.70;1.00;;;;;;5056140;28;20172;-79
2021/07/20 08:30:09;;;;;;;13.27;10.60;;;20.80;1.00;;;;;;5055818;28;20173;-80
2021/07/20 08:32:56;;;;;;;14.90;10.67;;;20.80;1.00;;;;;;5055550;28;20571;-79
2021/07/20 08:35:27;;;;;;;15.63;11.40;;;21.00;1.00;;;;;;5055291;28;20646;-80
2021/07/20 08:37:58;;;;;;;14.60;11.47;;;21.00;1.00;;;;;;5055541;28;20166;-81
2021/07/20 08:40:50;;;;;;;15.03;11.30;;;21.20;1.00;;;;;;5054822;28;20178;-79
2021/07/20 08:43:53;;;;;;;15.97;11.20;;;21.30;1.00;;;;;;5054328;28;20183;-80
2021/07/20 08:46:37;;;;;;;14.63;10.93;;;21.50;1.00;;;;;;5054365;28;20195;-79
2021/07/20 08:49:35;;;;;;;15.00;10.80;;;21.70;99.90;;;;;;5054935;28;20537;-79
2021/07/20 08:52:32;;;;;;;15.47;11.57;;;21.50;99.90;;;;;;5054721;28;20185;-79
2021/07/20 08:55:04;;;;;;;15.60;10.93;;;21.40;99.90;;;;;;5046774;28;20207;-80
2021/07/20 08:57:57;;;;;;;13.90;10.47;;;21.40;99.90;;;;;;5055398;28;20635;-81
2021/07/20 09:00:26;;;;;;;16.53;11.67;;;21.40;99.90;;;;;;5050995;28;20286;-81
2021/07/20 09:03:32;;;;;;;14.13;10.33;;;21.40;99.90;;;;;;5056227;28;20175;-80
2021/07/20 09:06:17;;;;;;;16.37;10.97;;;21.40;99.90;;;;;;5054972;28;20208;-80
2021/07/20 09:09:32;;;;;;;13.73;10.67;;;21.50;99.90;;;;;;5060874;28;20174;-80
2021/07/20 09:12:09;;;;;;;13.30;10.23;;;21.70;99.90;;;;;;5058131;28;20249;-80
2021/07/20 09:14:57;;;;;;;14.53;11.50;;;21.70;1.00;;;;;;5071286;28;20180;-79
2021/07/20 09:17:35;;;;;;;12.57;10.53;;;21.90;99.90;;;;;;5074910;28;20168;-80
2021/07/20 09:20:09;;;;;;;13.87;10.07;;;21.80;1.00;;;;;;5068853;28;20681;-78
2021/07/20 09:22:47;;;;;;;13.60;11.13;;;21.80;99.90;;;;;;5056190;28;20215;-80
2021/07/20 09:25:37;;;;;;;12.63;10.47;;;21.90;1.00;;;;;;5055945;28;20748;-79
2021/07/20 09:28:23;;;;;;;14.63;10.03;;;22.00;99.90;;;;;;5053960;28;20251;-78
2021/07/20 09:30:53;;;;;;;15.13;10.47;;;22.00;1.00;;;;;;5057045;28;20171;-79
2021/07/20 09:33:56;;;;;;;14.70;11.03;;;21.90;1.00;;;;;;5054789;28;20211;-78
2021/07/20 09:36:32;;;;;;;13.20;10.87;;;21.80;99.90;;;;;;5054037;28;20251;-79
2021/07/20 09:39:35;;;;;;;12.87;10.93;;;22.00;99.90;;;;;;5057514;28;20651;-79
2021/07/20 09:42:13;;;;;;;14.83;10.73;;;22.10;99.90;;;;;;5058091;28;20209;-79
2021/07/20 09:44:51;;;;;;;13.70;10.77;;;22.50;99.90;;;;;;5054279;28;20200;-80
2021/07/20 09:47:33;;;;;;;17.93;11.77;;;22.50;99.90;;;;;;5054400;28;20230;-79
2021/07/20 09:50:05;;;;;;;13.07;11.13;;;22.40;1.00;;;;;;5056220;28;20198;-79
2021/07/20 09:52:57;;;;;;;14.50;11.63;;;22.60;99.90;;;;;;5074707;28;20173;-80
2021/07/20 09:55:34;;;;;;;17.77;10.90;;;22.40;99.90;;;;;;5074738;28;20194;-80
2021/07/20 09:58:22;;;;;;;15.53;10.77;;;22.50;1.00;;;;;;5074337;28;20171;-79
2021/07/20 10:00:50;;;;;;;13.97;11.20;;;22.40;1.00;;;;;;5073263;28;20191;-80
2021/07/20 10:03:25;;;;;;;16.73;11.53;;;22.50;99.90;;;;;;5072723;28;20172;-79
2021/07/20 10:06:15;;;;;;;19.63;11.67;;;22.60;99.90;;;;;;5073759;28;20211;-80
2021/07/20 10:08:53;;;;;;;14.57;10.63;;;22.60;1.00;;;;;;5072541;28;20233;-80
2021/07/20 10:11:27;;;;;;;14.90;10.77;;;22.60;1.00;;;;;;5073792;28;20172;-79
2021/07/20 10:14:24;;;;;;;17.40;10.97;;;22.60;1.00;;;;;;5058282;28;20186;-80
2021/07/20 10:17:16;;;;;;;15.10;11.30;;;22.50;1.00;;;;;;5053851;28;20173;-80
2021/07/20 10:19:45;;;;;;;14.60;10.97;;;22.70;1.00;;;;;;5054047;28;20207;-77
2021/07/20 10:22:14;;;;;;;15.53;10.87;;;22.70;1.00;;;;;;5060445;28;20165;-79
2021/07/20 10:24:47;;;;;;;13.60;9.60;;;22.50;99.90;;;;;;5070875;28;20294;-81
2021/07/20 10:27:26;;;;;;;16.57;10.73;;;22.30;1.00;;;;;;5056054;28;20524;-79
2021/07/20 10:30:07;;;;;;;14.43;10.47;;;22.30;1.00;;;;;;5054106;28;20167;-81
2021/07/20 10:32:51;;;;;;;16.13;10.90;;;22.30;1.00;;;;;;5054212;28;20195;-80
2021/07/20 10:35:29;;;;;;;15.03;9.70;;;22.40;1.00;;;;;;5053877;28;20157;-81
2021/07/20 10:37:57;;;;;;;13.23;10.63;;;22.50;1.00;;;;;;5053539;28;20255;-79
2021/07/20 10:40:25;;;;;;;13.70;10.90;;;22.60;99.90;;;;;;5055699;28;20183;-80
2021/07/20 10:43:02;;;;;;;14.63;10.73;;;22.50;1.00;;;;;;5071979;28;20266;-80
2021/07/20 10:45:33;;;;;;;12.17;9.87;;;22.60;99.90;;;;;;5085294;28;20203;-78
2021/07/20 10:48:09;;;;;;;12.97;9.90;;;22.80;9.40;;;;;;5078406;28;20179;-80
2021/07/20 10:50:44;;;;;;;13.77;9.93;;;22.80;1.00;;;;;;5071909;28;20192;-79
2021/07/20 10:53:24;;;;;;;13.10;10.43;;;22.80;1.00;;;;;;5074017;28;20175;-80
2021/07/20 10:56:05;;;;;;;16.90;11.37;;;22.90;99.90;;;;;;5074320;28;20251;-79
2021/07/20 10:58:50;;;;;;;16.37;11.13;;;22.90;1.00;;;;;;5074129;28;20653;-80
2021/07/20 11:01:20;;;;;;;15.63;10.90;;;23.00;1.00;;;;;;5073525;28;20306;-78
2021/07/20 11:04:05;;;;;;;15.97;11.53;;;23.20;97.70;;;;;;5061953;28;20658;-80
2021/07/20 11:06:33;;;;;;;17.00;11.00;;;23.20;99.90;;;;;;5055806;28;20168;-79
2021/07/20 11:09:03;;;;;;;14.57;10.43;;;23.00;1.00;;;;;;5072418;28;20172;-79
2021/07/20 11:11:34;;;;;;;15.93;11.87;;;22.90;99.90;;;;;;5064217;28;20186;-81
2021/07/20 11:14:02;;;;;;;13.93;10.00;;;22.90;99.90;;;;;;5052607;28;20206;-82
2021/07/20 11:16:30;;;;;;;16.07;11.30;;;22.90;1.00;;;;;;5052708;28;20161;-80
2021/07/20 11:18:59;;;;;;;12.23;10.20;;;23.20;99.90;;;;;;5052824;28;20722;-80
2021/07/20 11:21:27;;;;;;;13.73;11.03;;;23.50;1.00;;;;;;5053002;28;20244;-80
2021/07/20 11:23:53;;;;;;;15.37;10.47;;;23.50;1.00;;;;;;5051698;28;20558;-80
2021/07/20 11:26:21;;;;;;;15.13;10.47;;;23.20;1.00;;;;;;5051138;28;20190;-80
2021/07/20 11:28:47;;;;;;;14.97;9.67;;;23.20;99.90;;;;;;5052855;28;20161;-81
2021/07/20 11:31:21;;;;;;;16.20;10.87;;;23.10;99.90;;;;;;5052715;28;20173;-81
2021/07/20 11:33:53;;;;;;;15.23;11.03;;;23.10;99.90;;;;;;5052606;28;20172;-80
2021/07/20 11:36:22;;;;;;;13.43;11.00;;;23.10;1.00;;;;;;5054846;28;20175;-80
2021/07/20 11:38:52;;;;;;;13.00;10.83;;;23.40;99.90;;;;;;5072505;28;20169;-80
2021/07/20 11:41:33;;;;;;;14.73;10.13;;;23.70;99.90;;;;;;5071225;28;20180;-81
2021/07/20 11:44:15;;;;;;;11.60;9.57;;;24.10;99.90;;;;;;5055105;28;20178;-81
2021/07/20 11:46:49;;;;;;;14.87;10.50;;;24.40;1.00;;;;;;5051978;28;20175;-80
2021/07/20 11:50:00;;;;;;;14.53;10.17;;;24.20;1.00;;;;;;5052117;28;20578;-80
2021/07/20 11:52:40;;;;;;;15.50;10.60;;;23.90;1.00;;;;;;5045904;28;20190;-81
2021/07/20 11:55:23;;;;;;;14.40;9.73;;;23.90;99.90;;;;;;5055705;28;20250;-80
2021/07/20 11:58:01;;;;;;;13.57;10.07;;;24.00;99.90;;;;;;5060694;28;20627;-81
2021/07/20 12:00:49;;;;;;;12.60;10.17;;;24.00;99.90;;;;;;5064531;28;20623;-80
2021/07/20 12:03:35;;;;;;;12.77;10.10;;;23.80;99.90;;;;;;5062933;28;20170;-82
2021/07/20 12:06:14;;;;;;;14.40;10.13;;;23.90;1.00;;;;;;5056719;28;20211;-80
2021/07/20 12:09:05;;;;;;;13.33;10.37;;;23.90;99.90;;;;;;5074372;28;20319;-82
2021/07/20 12:11:41;;;;;;;11.20;9.27;;;23.90;1.00;;;;;;5070335;28;20182;-80
2021/07/20 12:14:09;;;;;;;13.67;9.00;;;23.90;1.00;;;;;;5061591;28;20206;-79
2021/07/20 12:16:46;;;;;;;12.30;9.60;;;23.90;99.90;;;;;;5071709;28;20177;-80
2021/07/20 12:19:14;;;;;;;15.90;11.00;;;24.00;99.90;;;;;;5095839;28;20173;-81
2021/07/20 12:21:45;;;;;;;14.63;9.83;;;24.00;99.90;;;;;;5094416;28;20178;-80
2021/07/20 12:24:11;;;;;;;14.23;9.67;;;24.00;87.30;;;;;;5095250;28;20202;-79
2021/07/20 12:26:39;;;;;;;11.93;9.23;;;24.20;1.00;;;;;;5076381;28;20232;-80
2021/07/20 12:29:09;;;;;;;13.30;10.20;;;24.20;1.00;;;;;;5076455;28;20170;-80
2021/07/20 12:31:35;;;;;;;14.27;10.37;;;24.00;1.00;;;;;;5076550;28;20572;-79
2021/07/20 12:34:02;;;;;;;15.97;9.63;;;23.80;99.90;;;;;;5075597;28;20636;-80
2021/07/20 12:36:28;;;;;;;13.53;9.63;;;24.00;99.90;;;;;;5075684;28;20440;-80
2021/07/20 12:39:06;;;;;;;13.10;10.20;;;24.10;1.00;;;;;;5076235;28;20246;-80
2021/07/20 12:41:34;;;;;;;14.13;10.27;;;24.20;1.00;;;;;;5088772;28;20254;-79
2021/07/20 12:44:01;;;;;;;12.97;9.60;;;24.30;99.90;;;;;;5078406;28;20209;-80
2021/07/20 12:46:28;;;;;;;13.43;9.63;;;24.30;1.00;;;;;;5066266;28;20705;-81
2021/07/20 12:48:55;;;;;;;11.97;8.93;;;24.30;99.90;;;;;;5054514;28;20236;-80
2021/07/20 12:51:23;;;;;;;12.20;9.80;;;24.50;1.00;;;;;;5056267;28;20195;-80
2021/07/20 12:53:50;;;;;;;13.43;9.63;;;25.20;1.00;;;;;;5055359;28;20184;-79
2021/07/20 12:56:22;;;;;;;15.80;9.97;;;25.20;1.00;;;;;;5060560;28;20248;-80